createdAt,value
2019-01-28T11:57:12.747Z,29.03
2019-01-28T11:59:43.438Z,29.90
2019-01-28T12:02:11.485Z,29.03
2019-01-28T12:04:47.166Z,29.50
2019-01-28T12:07:27.619Z,30.40
2019-01-28T12:09:55.660Z,29.33
2019-01-28T12:12:24.467Z,30.20
2019-01-28T12:15:03.207Z,31.83
2019-01-28T12:17:35.085Z,31.50
2019-01-28T12:20:04.625Z,31.00
2019-01-28T12:22:35.937Z,29.47
2019-01-28T12:25:08.115Z,32.20
2019-01-28T12:27:39.567Z,32.40
2019-01-28T12:30:28.842Z,30.83
2019-01-28T12:33:14.942Z,31.03
2019-01-28T12:35:43.522Z,30.60
2019-01-28T12:38:11.634Z,32.97
2019-01-28T12:40:40.002Z,32.33
2019-01-28T12:43:11.363Z,31.23
2019-01-28T12:45:39.741Z,32.77
2019-01-28T12:48:08.818Z,33.93
2019-01-28T12:50:38.264Z,33.50
2019-01-28T12:53:06.880Z,33.23
2019-01-28T12:55:37.787Z,34.47
2019-01-28T12:58:06.905Z,34.93
2019-01-28T13:00:40.424Z,36.23
2019-01-28T13:03:09.088Z,39.07
2019-01-28T13:05:37.138Z,39.17
2019-01-28T13:08:05.198Z,40.87
2019-01-28T13:10:33.561Z,41.73
2019-01-28T13:13:01.697Z,41.00
2019-01-28T13:15:29.860Z,43.47
2019-01-28T13:17:57.904Z,42.70
2019-01-28T13:20:30.039Z,42.20
2019-01-28T13:22:57.865Z,42.20
2019-01-28T13:25:26.825Z,42.77
2019-01-28T13:27:54.821Z,44.63
2019-01-28T13:30:35.224Z,45.07
2019-01-28T13:33:03.139Z,43.37
2019-01-28T13:35:32.344Z,43.50
2019-01-28T13:38:00.837Z,44.60
2019-01-28T13:40:29.010Z,45.00
2019-01-28T13:42:56.761Z,44.77
2019-01-28T13:45:25.841Z,43.67
2019-01-28T13:47:56.757Z,43.43
2019-01-28T13:50:28.688Z,42.80
2019-01-28T13:53:09.672Z,44.20
2019-01-28T13:55:39.761Z,45.40
2019-01-28T13:58:11.944Z,45.83
2019-01-28T14:00:42.808Z,44.13
2019-01-28T14:03:19.069Z,45.07
2019-01-28T14:05:47.433Z,44.87
2019-01-28T14:08:15.908Z,45.83
2019-01-28T14:10:43.945Z,45.30
2019-01-28T14:13:12.027Z,47.27
2019-01-28T14:15:40.611Z,47.20
2019-01-28T14:18:21.312Z,46.00
2019-01-28T14:20:53.537Z,46.23
2019-01-28T14:23:19.766Z,46.50
2019-01-28T14:25:48.310Z,44.03
2019-01-28T14:28:16.358Z,45.97
2019-01-28T14:30:48.582Z,47.07
2019-01-28T14:33:16.670Z,48.57
2019-01-28T14:35:44.683Z,48.50
2019-01-28T14:38:13.550Z,46.87
2019-01-28T14:40:42.617Z,49.90
2019-01-28T14:43:10.489Z,49.90
2019-01-28T14:45:39.919Z,48.60
2019-01-28T14:48:09.913Z,51.47
2019-01-28T14:50:38.423Z,50.77
2019-01-28T14:53:06.517Z,50.70
2019-01-28T14:55:34.474Z,51.57
2019-01-28T14:58:03.193Z,52.60
2019-01-28T15:00:33.661Z,51.00
2019-01-28T15:03:01.435Z,52.37
2019-01-28T15:05:29.450Z,51.97
2019-01-28T15:07:58.204Z,53.33
2019-01-28T15:10:26.458Z,52.63
2019-01-28T15:12:54.336Z,50.93
2019-01-28T15:15:25.074Z,52.23
2019-01-28T15:17:53.056Z,54.50
2019-01-28T15:20:23.672Z,56.27
2019-01-28T15:22:51.570Z,56.47
2019-01-28T15:25:19.982Z,56.33
2019-01-28T15:27:47.900Z,59.20
2019-01-28T15:30:21.437Z,59.03
2019-01-28T15:32:49.733Z,60.63
2019-01-28T15:35:17.947Z,59.67
2019-01-28T15:37:46.017Z,61.43
2019-01-28T15:40:18.249Z,69.20
2019-01-28T15:42:46.319Z,62.43
2019-01-28T15:45:17.941Z,65.57
2019-01-28T15:47:46.163Z,64.93
2019-01-28T15:50:14.642Z,66.03
2019-01-28T15:52:44.571Z,66.77
2019-01-28T15:55:17.154Z,65.00
2019-01-28T15:57:45.777Z,64.97
2019-01-28T16:00:16.872Z,68.00
2019-01-28T16:02:45.448Z,66.27
2019-01-28T16:05:14.104Z,64.53
2019-01-28T16:07:42.342Z,66.37
2019-01-28T16:10:13.001Z,66.00
2019-01-28T16:12:41.263Z,66.10
2019-01-28T16:15:24.385Z,67.77
2019-01-28T16:17:52.592Z,65.83
2019-01-28T16:20:22.711Z,68.90
2019-01-28T16:22:50.610Z,67.73
2019-01-28T16:25:18.842Z,67.93
2019-01-28T16:27:47.095Z,67.07
2019-01-28T16:30:17.638Z,70.50
2019-01-28T16:32:45.822Z,70.60
2019-01-28T16:35:15.263Z,71.67
2019-01-28T16:37:43.395Z,73.23
2019-01-28T16:40:13.412Z,68.07
2019-01-28T16:42:41.540Z,67.60
2019-01-28T16:45:11.002Z,69.67
2019-01-28T16:47:39.092Z,72.70
2019-01-28T16:50:07.940Z,71.57
2019-01-28T16:52:36.101Z,73.73
2019-01-28T16:55:04.568Z,74.73
2019-01-28T16:57:32.749Z,72.10
2019-01-28T17:00:00.789Z,75.03
2019-01-28T17:02:30.961Z,71.87
2019-01-28T17:04:59.655Z,73.67
2019-01-28T17:07:30.357Z,74.07
2019-01-28T17:09:58.632Z,74.73
2019-01-28T17:12:26.631Z,73.23
2019-01-28T17:14:54.396Z,77.60
2019-01-28T17:17:23.378Z,78.07
2019-01-28T17:19:52.975Z,77.20
2019-01-28T17:22:22.330Z,77.47
2019-01-28T17:24:50.459Z,80.57
2019-01-28T17:27:18.410Z,78.93
2019-01-28T17:29:46.494Z,78.83
2019-01-28T17:32:14.459Z,82.07
2019-01-28T17:34:42.397Z,79.80
2019-01-28T17:37:10.444Z,79.57
2019-01-28T17:39:38.771Z,80.93
2019-01-28T17:42:06.745Z,84.13
2019-01-28T17:44:34.850Z,80.57
2019-01-28T17:47:03.194Z,83.33
2019-01-28T17:49:31.256Z,83.73
2019-01-28T17:51:59.413Z,86.80
2019-01-28T17:54:27.790Z,87.40
2019-01-28T17:56:55.709Z,88.17
2019-01-28T17:59:23.960Z,89.63
2019-01-28T18:01:55.400Z,91.20
2019-01-28T18:04:24.065Z,88.80
2019-01-28T18:07:04.377Z,90.13
2019-01-28T18:09:33.026Z,91.27
2019-01-28T18:12:01.001Z,95.87
2019-01-28T18:14:33.866Z,95.53
2019-01-28T18:17:05.159Z,94.70
2019-01-28T18:19:37.993Z,95.63
2019-01-28T18:22:50.773Z,94.43
2019-01-28T18:25:25.398Z,98.47
2019-01-28T18:27:59.926Z,101.47
2019-01-28T18:30:44.699Z,99.63
2019-01-28T18:33:13.353Z,97.80
2019-01-28T18:35:42.763Z,98.83
2019-01-28T18:38:10.922Z,101.93
2019-01-28T18:40:41.445Z,102.23
2019-01-28T18:43:17.524Z,105.00
2019-01-28T18:45:51.068Z,106.77
2019-01-28T18:48:19.713Z,106.03
2019-01-28T18:50:50.816Z,105.10
2019-01-28T18:53:19.929Z,106.87
2019-01-28T18:55:48.589Z,109.00
2019-01-28T18:58:17.194Z,111.43
2019-01-28T19:00:45.487Z,110.50
2019-01-28T19:03:17.181Z,111.73
2019-01-28T19:06:18.265Z,109.90
2019-01-28T19:09:06.651Z,108.87
2019-01-28T19:11:44.528Z,109.10
2019-01-28T19:14:38.689Z,110.57
2019-01-28T19:17:25.985Z,113.23
2019-01-28T19:20:15.981Z,110.90
2019-01-28T19:22:44.313Z,114.00
2019-01-28T19:25:13.232Z,111.60
2019-01-28T19:27:41.710Z,112.80
2019-01-28T19:30:17.383Z,114.50
2019-01-28T19:32:47.232Z,110.93
2019-01-28T19:35:15.520Z,112.93
2019-01-28T19:37:44.091Z,113.70
2019-01-28T19:40:30.190Z,116.63
2019-01-28T19:42:58.776Z,112.67
2019-01-28T19:45:27.769Z,114.30
2019-01-28T19:47:56.131Z,111.60
2019-01-28T19:50:25.648Z,111.70
2019-01-28T19:52:54.263Z,113.27
2019-01-28T19:57:54.113Z,115.03
2019-01-28T20:00:24.564Z,114.63
2019-01-28T20:02:53.991Z,119.47
2019-01-28T20:05:23.553Z,115.87
2019-01-28T20:07:52.183Z,120.07
2019-01-28T20:10:20.402Z,118.57
2019-01-28T20:12:48.698Z,116.20
2019-01-28T20:15:18.639Z,117.60
2019-01-28T20:17:54.487Z,114.47
2019-01-28T20:20:27.338Z,117.63
2019-01-28T20:22:55.697Z,119.67
2019-01-28T20:25:24.264Z,118.30
2019-01-28T20:27:53.682Z,120.30
2019-01-28T20:30:24.817Z,120.30
2019-01-28T20:32:55.708Z,119.63
2019-01-28T20:35:23.676Z,116.77
2019-01-28T20:37:53.804Z,115.90
2019-01-28T20:40:22.027Z,117.30
2019-01-28T20:42:50.087Z,116.63
2019-01-28T20:45:20.249Z,118.83
2019-01-28T20:47:48.596Z,117.40
2019-01-28T20:50:28.431Z,120.53
2019-01-28T20:53:00.029Z,117.77
2019-01-28T20:55:28.417Z,119.80
2019-01-28T20:57:57.013Z,119.87
2019-01-28T21:00:26.881Z,119.17
2019-01-28T21:02:57.043Z,121.80
2019-01-28T21:05:26.878Z,118.00
2019-01-28T21:07:55.401Z,118.67
2019-01-28T21:10:24.261Z,117.47
2019-01-28T21:12:54.990Z,119.83
2019-01-28T21:15:24.431Z,121.13
2019-01-28T21:17:52.956Z,118.70
2019-01-28T21:20:22.358Z,120.93
2019-01-28T21:22:51.476Z,114.43
2019-01-28T21:25:22.365Z,118.10
2019-01-28T21:27:52.218Z,120.27
2019-01-28T21:30:27.400Z,120.30
2019-01-28T21:32:57.932Z,119.27
2019-01-28T21:35:58.351Z,119.47
2019-01-28T21:38:51.011Z,119.47
2019-01-28T21:41:22.266Z,115.73
2019-01-28T21:47:14.139Z,114.97
2019-01-28T21:50:05.495Z,122.10
2019-01-28T21:55:37.796Z,115.07
2019-01-28T21:58:08.164Z,113.83
2019-01-28T22:00:39.224Z,115.23
2019-01-28T22:03:16.358Z,114.00
2019-01-28T22:06:00.184Z,111.23
2019-01-28T22:12:01.719Z,105.27
2019-01-28T22:14:34.153Z,109.97
2019-01-28T22:17:17.201Z,111.60
2019-01-28T22:19:51.739Z,110.53
2019-01-28T22:22:29.798Z,110.00
2019-01-28T22:25:00.843Z,110.73
2019-01-28T22:27:32.329Z,111.73
2019-01-28T22:30:09.723Z,110.27
2019-01-28T22:32:45.063Z,108.93
2019-01-28T22:35:30.414Z,109.40
2019-01-28T22:38:03.659Z,111.87
2019-01-28T22:40:36.797Z,109.07
2019-01-28T22:43:18.667Z,110.00
2019-01-28T22:46:05.143Z,110.73
2019-01-28T22:49:03.608Z,108.07
2019-01-28T22:51:43.811Z,108.00
2019-01-28T22:54:36.627Z,108.13
2019-01-28T22:57:11.454Z,108.00
2019-01-28T22:59:46.743Z,110.13
2019-01-28T23:02:57.590Z,107.37
2019-01-28T23:05:59.377Z,104.50
2019-01-28T23:08:38.811Z,104.80
2019-01-28T23:15:11.412Z,96.90
2019-01-28T23:18:14.157Z,103.40
2019-01-28T23:21:59.441Z,98.17
2019-01-28T23:39:06.988Z,92.90
2019-01-28T23:42:25.895Z,92.17
2019-01-28T23:49:51.521Z,92.73
2019-01-28T23:53:09.217Z,91.17
